createdAt,value
2022-10-03T00:01:15.691Z,5.10
2022-10-03T00:02:38.793Z,4.03
2022-10-03T00:03:57.485Z,4.10
2022-10-03T00:05:11.514Z,5.88
2022-10-03T00:06:16.742Z,5.25
2022-10-03T00:07:37.492Z,3.97
2022-10-03T00:08:57.412Z,5.10
2022-10-03T00:10:12.431Z,5.82
2022-10-03T00:11:27.999Z,4.43
2022-10-03T00:12:47.261Z,4.60
2022-10-03T00:17:20.626Z,4.78
2022-10-03T00:18:36.464Z,4.20
2022-10-03T00:21:03.858Z,4.40
2022-10-03T00:22:18.860Z,5.60
2022-10-03T00:23:25.258Z,5.00
2022-10-03T00:25:46.285Z,4.32
2022-10-03T00:26:52.628Z,4.53
2022-10-03T00:28:10.861Z,4.70
2022-10-03T00:29:31.156Z,4.95
2022-10-03T00:30:50.901Z,5.30
2022-10-03T00:32:06.199Z,5.78
2022-10-03T00:33:19.728Z,4.93
2022-10-03T00:34:29.905Z,5.63
2022-10-03T00:35:50.854Z,5.07
2022-10-03T00:37:08.427Z,5.72
2022-10-03T00:38:28.901Z,4.82
2022-10-03T00:39:46.054Z,4.95
2022-10-03T00:41:11.409Z,5.28
2022-10-03T00:43:08.206Z,4.70
2022-10-03T00:44:47.271Z,4.82
2022-10-03T00:46:32.345Z,5.32
2022-10-03T00:48:08.989Z,5.65
2022-10-03T00:49:52.640Z,5.70
2022-10-03T00:51:11.324Z,5.45
2022-10-03T00:52:31.278Z,5.55
2022-10-03T00:53:47.391Z,5.50
2022-10-03T00:55:02.508Z,5.05
2022-10-03T00:56:21.567Z,6.60
2022-10-03T00:57:51.499Z,5.95
2022-10-03T00:59:06.815Z,5.55
2022-10-03T01:00:19.578Z,4.75
2022-10-03T01:01:30.170Z,5.20
2022-10-03T01:02:46.831Z,5.32
2022-10-03T01:04:00.325Z,4.90
2022-10-03T01:05:12.958Z,5.55
2022-10-03T01:06:27.029Z,4.88
2022-10-03T01:07:56.276Z,4.80
2022-10-03T01:09:18.733Z,5.50
2022-10-03T01:10:29.673Z,6.25
2022-10-03T01:11:47.751Z,5.03
2022-10-03T01:13:04.715Z,5.03
2022-10-03T01:14:23.061Z,6.90
2022-10-03T01:15:34.562Z,5.53
2022-10-03T01:16:52.170Z,6.65
2022-10-03T01:18:10.104Z,5.15
2022-10-03T01:19:33.523Z,6.18
2022-10-03T01:20:46.614Z,5.93
2022-10-03T01:22:41.980Z,4.32
2022-10-03T01:24:15.737Z,6.00
2022-10-03T01:25:19.672Z,5.78
2022-10-03T01:26:50.573Z,5.18
2022-10-03T01:28:19.421Z,4.63
2022-10-03T01:29:50.313Z,6.00
2022-10-03T01:30:56.704Z,5.18
2022-10-03T01:32:05.227Z,4.93
2022-10-03T01:33:13.951Z,5.13
2022-10-03T01:34:24.123Z,4.88
2022-10-03T01:35:37.410Z,4.75
2022-10-03T01:36:49.825Z,4.75
2022-10-03T01:38:01.717Z,5.15
2022-10-03T01:39:14.853Z,5.22
2022-10-03T01:40:27.182Z,4.60
2022-10-03T01:41:36.920Z,5.10
2022-10-03T01:42:54.777Z,5.78
2022-10-03T01:44:02.299Z,4.63
2022-10-03T01:45:15.537Z,5.07
2022-10-03T01:46:21.620Z,5.10
2022-10-03T01:47:32.235Z,5.40
2022-10-03T01:48:43.714Z,7.03
2022-10-03T01:49:55.438Z,5.30
2022-10-03T01:51:04.835Z,4.90
2022-10-03T01:52:16.616Z,5.90
2022-10-03T01:53:28.064Z,5.95
2022-10-03T01:54:37.790Z,5.15
2022-10-03T01:55:50.690Z,5.00
2022-10-03T01:56:58.401Z,6.22
2022-10-03T01:58:07.713Z,5.63
2022-10-03T01:59:17.962Z,5.00
2022-10-03T02:00:25.820Z,5.00
2022-10-03T02:01:35.453Z,5.72
2022-10-03T02:02:46.131Z,5.30
2022-10-03T02:03:56.394Z,5.00
2022-10-03T02:05:06.829Z,5.18
2022-10-03T02:06:20.590Z,4.80
2022-10-03T02:07:28.400Z,5.38
2022-10-03T02:08:51.763Z,4.90
2022-10-03T02:10:07.009Z,5.57
2022-10-03T02:11:12.305Z,5.95
2022-10-03T02:12:23.912Z,4.55
2022-10-03T02:13:31.785Z,5.15
2022-10-03T02:14:45.889Z,5.18
2022-10-03T02:16:02.492Z,5.25
2022-10-03T02:17:09.690Z,4.65
2022-10-03T02:18:17.733Z,4.90
2022-10-03T02:19:24.292Z,6.60
2022-10-03T02:20:37.148Z,4.75
2022-10-03T02:21:48.114Z,4.70
2022-10-03T02:22:54.839Z,4.90
2022-10-03T02:24:26.665Z,4.85
2022-10-03T02:25:52.061Z,5.10
2022-10-03T02:27:13.655Z,4.75
2022-10-03T02:28:44.853Z,4.63
2022-10-03T02:30:13.591Z,5.15
2022-10-03T02:31:38.906Z,6.55
2022-10-03T02:33:44.303Z,5.65
2022-10-03T02:35:10.389Z,4.70
2022-10-03T02:36:49.447Z,5.38
2022-10-03T02:38:34.894Z,5.70
2022-10-03T02:40:00.525Z,5.07
2022-10-03T02:41:20.203Z,5.35
2022-10-03T02:43:10.395Z,5.60
2022-10-03T02:44:41.231Z,5.60
2022-10-03T02:46:10.778Z,4.63
2022-10-03T02:47:42.033Z,5.78
2022-10-03T02:49:12.689Z,5.10
2022-10-03T02:51:49.980Z,6.20
2022-10-03T02:53:09.920Z,5.22
2022-10-03T02:54:45.569Z,5.95
2022-10-03T02:57:30.979Z,5.50
2022-10-03T02:59:00.533Z,5.63
2022-10-03T03:00:09.682Z,5.03
2022-10-03T03:01:48.221Z,6.35
2022-10-03T03:03:37.350Z,5.65
2022-10-03T03:05:22.280Z,5.25
2022-10-03T03:06:43.785Z,4.55
2022-10-03T03:08:09.296Z,5.53
2022-10-03T03:09:34.822Z,5.88
2022-10-03T03:10:59.605Z,5.70
2022-10-03T03:12:41.266Z,5.32
2022-10-03T03:14:19.057Z,5.65
2022-10-03T03:16:02.514Z,5.75
2022-10-03T03:17:16.327Z,6.15
2022-10-03T03:18:30.312Z,6.18
2022-10-03T03:20:17.630Z,5.82
2022-10-03T03:21:29.407Z,5.97
2022-10-03T03:22:46.051Z,5.85
2022-10-03T03:24:01.388Z,5.65
2022-10-03T03:25:33.246Z,5.70
2022-10-03T03:26:55.763Z,5.82
2022-10-03T03:28:11.990Z,5.70
2022-10-03T03:29:24.248Z,6.82
2022-10-03T03:30:37.380Z,5.53
2022-10-03T03:31:48.940Z,5.95
2022-10-03T03:33:07.823Z,6.53
2022-10-03T03:34:19.005Z,5.97
2022-10-03T03:35:33.280Z,5.57
2022-10-03T03:36:41.388Z,5.75
2022-10-03T03:37:52.285Z,5.40
2022-10-03T03:39:04.297Z,5.65
2022-10-03T03:40:29.546Z,5.70
2022-10-03T03:41:46.570Z,6.20
2022-10-03T03:43:12.358Z,6.30
2022-10-03T03:44:46.254Z,6.18
2022-10-03T03:46:00.241Z,5.38
2022-10-03T03:47:22.803Z,5.00
2022-10-03T03:49:02.058Z,6.00
2022-10-03T03:50:23.381Z,5.50
2022-10-03T03:51:34.347Z,6.60
2022-10-03T03:52:49.874Z,5.97
2022-10-03T03:54:19.452Z,5.28
2022-10-03T03:55:52.630Z,5.47
2022-10-03T03:57:14.506Z,5.97
2022-10-03T03:58:30.916Z,5.93
2022-10-03T03:59:47.752Z,5.22
2022-10-03T04:01:08.517Z,5.50
2022-10-03T04:02:28.949Z,5.43
2022-10-03T04:03:43.203Z,5.60
2022-10-03T04:05:07.900Z,5.20
2022-10-03T04:06:36.419Z,5.45
2022-10-03T04:07:50.320Z,6.00
2022-10-03T04:09:09.946Z,5.00
2022-10-03T04:10:22.636Z,5.05
2022-10-03T04:11:31.499Z,5.28
2022-10-03T04:12:53.956Z,5.65
2022-10-03T04:14:19.145Z,6.82
2022-10-03T04:15:39.050Z,6.03
2022-10-03T04:17:13.892Z,5.95
2022-10-03T04:18:51.286Z,4.63
2022-10-03T04:20:13.373Z,4.97
2022-10-03T04:21:31.092Z,5.68
2022-10-03T04:22:53.672Z,6.35
2022-10-03T04:24:19.707Z,6.45
2022-10-03T04:25:41.019Z,6.82
2022-10-03T04:27:03.854Z,6.38
2022-10-03T04:28:36.051Z,5.60
2022-10-03T04:29:44.226Z,5.88
2022-10-03T04:30:56.854Z,5.88
2022-10-03T04:32:14.982Z,5.43
2022-10-03T04:33:32.588Z,7.05
2022-10-03T04:34:47.930Z,5.80
2022-10-03T04:36:22.934Z,5.75
2022-10-03T04:37:40.222Z,6.72
2022-10-03T04:38:51.090Z,5.82
2022-10-03T04:40:09.274Z,5.70
2022-10-03T04:41:23.312Z,5.60
2022-10-03T04:42:40.936Z,6.40
2022-10-03T04:43:52.357Z,5.97
2022-10-03T04:45:06.059Z,5.90
2022-10-03T04:46:23.270Z,5.57
2022-10-03T04:47:34.003Z,5.22
2022-10-03T04:48:39.829Z,5.95
2022-10-03T04:49:48.778Z,5.53
2022-10-03T04:51:03.514Z,6.47
2022-10-03T04:52:16.552Z,5.57
2022-10-03T04:53:40.909Z,5.82
2022-10-03T04:54:52.789Z,6.95
2022-10-03T04:56:00.819Z,6.63
2022-10-03T04:57:12.465Z,5.45
2022-10-03T04:58:23.241Z,6.20
2022-10-03T04:59:35.383Z,6.32
2022-10-03T05:00:49.536Z,6.85
2022-10-03T05:01:56.780Z,5.65
2022-10-03T05:03:06.243Z,5.95
2022-10-03T05:04:23.111Z,6.10
2022-10-03T05:05:58.225Z,5.57
2022-10-03T05:07:10.915Z,5.90
2022-10-03T05:08:29.828Z,5.90
2022-10-03T05:09:41.103Z,6.15
2022-10-03T05:10:57.265Z,7.03
2022-10-03T05:12:08.402Z,5.85
2022-10-03T05:13:17.018Z,6.47
2022-10-03T05:14:28.881Z,5.68
2022-10-03T05:15:35.957Z,5.15
2022-10-03T05:16:43.512Z,5.22
2022-10-03T05:17:55.645Z,6.43
2022-10-03T05:19:24.029Z,6.05
2022-10-03T05:20:43.090Z,5.95
2022-10-03T05:21:49.743Z,6.97
2022-10-03T05:23:02.021Z,6.70
2022-10-03T05:24:24.238Z,7.03
2022-10-03T05:25:34.020Z,5.80
2022-10-03T05:26:47.230Z,6.40
2022-10-03T05:27:59.205Z,5.60
2022-10-03T05:29:11.279Z,6.85
2022-10-03T05:30:19.803Z,6.15
2022-10-03T05:31:30.360Z,6.85
2022-10-03T05:32:41.624Z,6.45
2022-10-03T05:33:50.868Z,6.30
2022-10-03T05:35:08.368Z,7.10
2022-10-03T05:36:19.839Z,6.10
2022-10-03T05:37:43.949Z,6.22
2022-10-03T05:39:35.134Z,6.97
2022-10-03T05:40:44.036Z,7.20
2022-10-03T05:42:17.809Z,5.95
2022-10-03T05:43:29.080Z,7.47
2022-10-03T05:44:42.399Z,6.88
2022-10-03T05:45:55.034Z,6.43
2022-10-03T05:47:01.059Z,7.18
2022-10-03T05:48:19.929Z,6.25
2022-10-03T05:49:44.047Z,6.03
2022-10-03T05:51:20.224Z,7.05
2022-10-03T05:52:43.411Z,5.95
2022-10-03T05:54:18.226Z,6.30
2022-10-03T05:55:33.891Z,6.70
2022-10-03T05:56:58.046Z,6.38
2022-10-03T05:58:22.638Z,6.47
2022-10-03T05:59:43.344Z,6.20
2022-10-03T06:01:09.876Z,6.78
2022-10-03T06:02:44.935Z,6.85
2022-10-03T06:04:14.509Z,6.40
2022-10-03T06:05:29.515Z,6.07
2022-10-03T06:06:43.493Z,6.80
2022-10-03T06:08:02.871Z,7.60
2022-10-03T06:09:24.964Z,5.53
2022-10-03T06:10:47.039Z,6.90
2022-10-03T06:12:11.001Z,6.35
2022-10-03T06:13:20.291Z,7.28
2022-10-03T06:14:34.732Z,7.10
2022-10-03T06:15:54.191Z,6.10
2022-10-03T06:17:10.270Z,6.95
2022-10-03T06:18:38.526Z,6.60
2022-10-03T06:19:49.666Z,5.60
2022-10-03T06:21:19.369Z,5.85
2022-10-03T06:23:05.785Z,6.53
2022-10-03T06:24:38.370Z,6.20
2022-10-03T06:26:15.340Z,6.28
2022-10-03T06:27:55.195Z,7.43
2022-10-03T06:29:30.923Z,7.10
2022-10-03T06:30:53.405Z,7.53
2022-10-03T06:32:29.014Z,5.97
2022-10-03T06:34:22.390Z,6.50
2022-10-03T06:35:53.884Z,6.40
2022-10-03T06:37:16.315Z,6.78
2022-10-03T06:39:09.509Z,5.70
2022-10-03T06:40:48.784Z,7.13
2022-10-03T06:42:24.746Z,6.07
2022-10-03T06:43:57.062Z,6.90
2022-10-03T06:45:24.843Z,7.15
2022-10-03T06:46:48.089Z,6.20
2022-10-03T06:48:08.424Z,6.63
2022-10-03T06:49:48.885Z,7.15
2022-10-03T06:50:55.387Z,7.50
2022-10-03T06:52:19.435Z,6.53
2022-10-03T06:53:40.483Z,6.88
2022-10-03T06:55:17.937Z,6.82
2022-10-03T06:56:57.741Z,7.47
2022-10-03T06:58:20.127Z,6.70
2022-10-03T06:59:55.040Z,6.95
2022-10-03T07:01:20.104Z,6.88
2022-10-03T07:02:48.630Z,6.70
2022-10-03T07:04:07.906Z,7.40
2022-10-03T07:05:43.741Z,7.55
2022-10-03T07:07:10.963Z,6.78
2022-10-03T07:08:37.489Z,7.15
2022-10-03T07:10:05.613Z,7.57
2022-10-03T07:11:29.245Z,8.00
2022-10-03T07:12:53.857Z,7.90
2022-10-03T07:14:18.344Z,7.60
2022-10-03T07:16:26.028Z,8.13
2022-10-03T07:17:46.490Z,7.38
2022-10-03T07:19:40.620Z,6.82
2022-10-03T07:21:03.819Z,6.82
2022-10-03T07:22:48.735Z,7.53
2022-10-03T07:24:07.728Z,6.70
2022-10-03T07:25:33.087Z,6.40
2022-10-03T07:27:17.756Z,7.10
2022-10-03T07:28:48.402Z,7.25
2022-10-03T07:30:09.540Z,7.68
2022-10-03T07:31:23.493Z,7.47
2022-10-03T07:32:41.850Z,6.43
2022-10-03T07:34:29.630Z,7.05
2022-10-03T07:36:08.775Z,7.45
2022-10-03T07:37:46.710Z,6.53
2022-10-03T07:39:12.227Z,8.50
2022-10-03T07:40:50.863Z,7.30
2022-10-03T07:42:22.147Z,6.70
2022-10-03T07:44:00.788Z,7.45
2022-10-03T07:45:42.084Z,7.05
2022-10-03T07:47:11.114Z,7.53
2022-10-03T07:48:36.507Z,7.47
2022-10-03T07:50:31.103Z,7.60
2022-10-03T07:51:45.011Z,7.07
2022-10-03T07:53:01.000Z,7.00
2022-10-03T07:54:30.091Z,7.07
2022-10-03T07:55:52.387Z,9.25
2022-10-03T07:57:24.591Z,7.25
2022-10-03T07:58:58.684Z,7.78
2022-10-03T08:00:10.732Z,8.35
2022-10-03T08:01:52.373Z,8.10
2022-10-03T08:03:33.300Z,6.70
2022-10-03T08:05:03.997Z,7.20
2022-10-03T08:06:21.039Z,8.40
2022-10-03T08:07:52.196Z,8.13
2022-10-03T08:09:28.968Z,6.82
2022-10-03T08:11:04.333Z,9.38
2022-10-03T08:12:29.863Z,7.95
2022-10-03T08:13:43.516Z,7.60
2022-10-03T08:14:57.944Z,6.63
2022-10-03T08:16:13.219Z,7.55
2022-10-03T08:18:09.830Z,7.70
2022-10-03T08:19:28.720Z,7.35
2022-10-03T08:20:41.794Z,7.85
2022-10-03T08:21:59.489Z,9.48
2022-10-03T08:23:23.704Z,7.72
2022-10-03T08:24:56.607Z,7.25
2022-10-03T08:26:17.020Z,7.60
2022-10-03T08:27:43.941Z,8.50
2022-10-03T08:29:22.725Z,7.53
2022-10-03T08:30:27.654Z,7.20
2022-10-03T08:31:49.658Z,7.93
2022-10-03T08:33:07.383Z,8.98
2022-10-03T08:34:38.418Z,7.85
2022-10-03T08:36:32.815Z,7.97
2022-10-03T08:38:05.705Z,8.18
2022-10-03T08:39:13.911Z,8.07
2022-10-03T08:40:57.002Z,8.70
2022-10-03T08:42:27.154Z,7.32
2022-10-03T08:44:03.170Z,7.55
2022-10-03T08:45:35.139Z,7.55
2022-10-03T08:47:07.240Z,10.50
2022-10-03T08:48:46.146Z,7.93
2022-10-03T08:50:36.463Z,7.82
2022-10-03T08:52:05.425Z,7.13
2022-10-03T08:53:44.237Z,8.02
2022-10-03T08:55:10.048Z,7.95
2022-10-03T08:56:17.611Z,6.97
2022-10-03T08:57:38.186Z,7.03
2022-10-03T08:59:28.625Z,7.50
2022-10-03T09:00:47.824Z,7.25
2022-10-03T09:02:37.404Z,7.35
2022-10-03T09:04:26.319Z,7.15
2022-10-03T09:08:24.994Z,7.70
2022-10-03T09:09:56.637Z,7.22
2022-10-03T09:11:23.901Z,7.20
2022-10-03T09:12:47.833Z,6.57
2022-10-03T09:14:18.983Z,7.75
2022-10-03T09:15:53.394Z,6.40
2022-10-03T09:17:09.309Z,7.20
2022-10-03T09:18:36.081Z,6.70
2022-10-03T09:20:11.939Z,7.70
2022-10-03T09:21:38.926Z,6.47
2022-10-03T09:23:13.451Z,6.68
2022-10-03T09:24:49.047Z,6.65
2022-10-03T09:26:09.166Z,6.72
2022-10-03T09:30:32.283Z,5.80
2022-10-03T09:32:09.762Z,5.93
2022-10-03T09:33:50.890Z,6.78
2022-10-03T09:35:26.956Z,5.97
2022-10-03T09:37:13.683Z,6.03
2022-10-03T09:38:45.248Z,5.93
2022-10-03T09:40:19.507Z,5.07
2022-10-03T09:42:21.976Z,5.22
2022-10-03T09:43:54.509Z,5.55
2022-10-03T09:45:28.162Z,5.75
2022-10-03T09:47:09.121Z,5.70
2022-10-03T09:48:27.008Z,5.70
2022-10-03T09:49:48.248Z,5.25
2022-10-03T09:51:06.222Z,5.18
2022-10-03T09:52:42.795Z,4.63
2022-10-03T09:54:23.689Z,4.70
2022-10-03T09:55:41.558Z,5.13
2022-10-03T09:57:09.922Z,5.18
2022-10-03T09:58:40.882Z,5.25
2022-10-03T10:01:15.389Z,4.80
2022-10-03T10:02:47.486Z,3.95
2022-10-03T10:04:53.128Z,4.65
2022-10-03T10:06:08.373Z,4.85
2022-10-03T10:07:41.351Z,4.47
2022-10-03T10:09:02.066Z,4.30
2022-10-03T10:10:31.905Z,3.67
2022-10-03T10:12:00.043Z,4.15
2022-10-03T10:13:18.041Z,3.55
2022-10-03T10:14:45.149Z,4.68
2022-10-03T10:16:10.318Z,3.83
2022-10-03T10:17:45.882Z,3.38
2022-10-03T10:19:16.148Z,3.28
2022-10-03T10:20:32.873Z,3.38
2022-10-03T10:21:53.520Z,4.10
2022-10-03T10:23:11.908Z,3.13
2022-10-03T10:24:46.409Z,3.33
2022-10-03T10:26:25.317Z,3.40
2022-10-03T10:28:05.833Z,3.10
2022-10-03T10:29:22.870Z,3.53
2022-10-03T10:30:55.154Z,3.15
2022-10-03T10:32:30.909Z,3.90
2022-10-03T10:34:20.224Z,3.63
2022-10-03T10:36:10.664Z,3.20
2022-10-03T10:37:54.077Z,2.60
2022-10-03T10:39:28.832Z,2.75
2022-10-03T10:40:53.854Z,3.03
2022-10-03T10:42:56.688Z,2.35
2022-10-03T10:44:36.575Z,2.75
2022-10-03T10:45:46.765Z,2.45
2022-10-03T10:47:23.436Z,2.88
2022-10-03T10:49:07.427Z,2.58
2022-10-03T10:50:32.056Z,2.30
2022-10-03T10:52:13.900Z,2.80
2022-10-03T10:53:53.580Z,2.53
2022-10-03T10:55:23.750Z,3.30
2022-10-03T10:57:01.755Z,2.97
2022-10-03T10:58:53.058Z,2.63
2022-10-03T11:00:16.107Z,2.20
2022-10-03T11:01:46.755Z,3.10
2022-10-03T11:03:28.810Z,2.15
2022-10-03T11:05:10.427Z,2.53
2022-10-03T11:06:53.889Z,1.70
2022-10-03T11:08:38.301Z,2.50
2022-10-03T11:10:16.420Z,2.80
2022-10-03T11:11:59.623Z,2.20
2022-10-03T11:13:37.455Z,2.00
2022-10-03T11:15:15.031Z,2.20
2022-10-03T11:17:01.203Z,1.70
2022-10-03T11:18:44.507Z,2.20
2022-10-03T11:20:22.713Z,2.00
2022-10-03T11:22:08.927Z,1.75
2022-10-03T11:23:57.526Z,2.15
2022-10-03T11:25:40.991Z,2.90
2022-10-03T11:27:28.877Z,1.90
2022-10-03T11:29:21.741Z,1.63
2022-10-03T11:31:07.759Z,1.75
2022-10-03T11:32:37.176Z,1.95
2022-10-03T11:34:17.728Z,1.83
2022-10-03T11:35:53.865Z,2.25
2022-10-03T11:37:09.149Z,1.55
2022-10-03T11:38:20.032Z,2.20
2022-10-03T11:39:32.066Z,1.80
2022-10-03T11:40:49.547Z,1.50
2022-10-03T11:42:02.067Z,1.90
2022-10-03T11:43:33.038Z,2.20
2022-10-03T11:44:42.652Z,1.95
2022-10-03T11:45:51.434Z,1.80
2022-10-03T11:47:17.122Z,1.85
2022-10-03T11:48:39.721Z,1.90
2022-10-03T11:50:19.755Z,1.92
2022-10-03T11:51:37.931Z,2.15
2022-10-03T11:52:58.439Z,1.95
2022-10-03T11:54:30.588Z,1.95
2022-10-03T11:55:44.087Z,1.73
2022-10-03T11:56:51.743Z,1.50
2022-10-03T11:58:11.072Z,2.15
2022-10-03T12:00:00.953Z,1.50
2022-10-03T12:01:19.778Z,2.03
2022-10-03T12:02:41.933Z,2.40
2022-10-03T12:03:53.574Z,2.08
2022-10-03T12:05:00.636Z,1.83
2022-10-03T12:06:40.259Z,3.10
2022-10-03T12:08:08.272Z,2.10
2022-10-03T12:09:17.089Z,2.65
2022-10-03T12:10:39.037Z,2.37
2022-10-03T12:11:53.624Z,2.20
2022-10-03T12:12:57.987Z,1.60
2022-10-03T12:14:13.045Z,2.00
2022-10-03T12:15:27.411Z,1.70
2022-10-03T12:16:39.086Z,1.77
2022-10-03T12:17:46.733Z,1.83
2022-10-03T12:19:05.306Z,1.70
2022-10-03T12:20:18.286Z,1.90
2022-10-03T12:21:25.276Z,1.77
2022-10-03T12:22:43.489Z,2.00
2022-10-03T12:24:02.751Z,2.15
2022-10-03T12:25:19.099Z,1.90
2022-10-03T12:26:28.802Z,2.13
2022-10-03T12:27:42.547Z,1.70
2022-10-03T12:28:50.766Z,2.20
2022-10-03T12:29:58.649Z,2.50
2022-10-03T12:31:13.967Z,2.22
2022-10-03T12:32:29.589Z,1.85
2022-10-03T12:33:47.879Z,1.80
2022-10-03T12:35:02.602Z,2.05
2022-10-03T12:37:25.502Z,2.30
2022-10-03T12:38:56.355Z,1.73
2022-10-03T12:40:06.465Z,2.22
2022-10-03T12:41:22.337Z,1.95
2022-10-03T12:42:29.183Z,2.50
2022-10-03T12:43:46.972Z,2.90
2022-10-03T12:44:56.113Z,1.85
2022-10-03T12:46:02.370Z,2.10
2022-10-03T12:47:37.620Z,1.98
2022-10-03T12:48:51.703Z,2.20
2022-10-03T12:50:00.119Z,1.50
2022-10-03T12:51:09.503Z,1.65
2022-10-03T12:52:19.106Z,2.10
2022-10-03T12:53:31.136Z,1.80
2022-10-03T12:54:48.205Z,2.20
2022-10-03T12:56:02.769Z,2.22
2022-10-03T12:57:35.294Z,2.42
2022-10-03T12:58:51.415Z,1.80
2022-10-03T13:00:02.999Z,1.85
2022-10-03T13:01:16.835Z,1.50
2022-10-03T13:02:27.775Z,1.52
2022-10-03T13:03:44.400Z,1.42
2022-10-03T13:05:02.369Z,1.70
2022-10-03T13:06:44.450Z,1.60
2022-10-03T13:07:53.905Z,2.10
2022-10-03T13:09:11.836Z,1.80
2022-10-03T13:10:29.317Z,1.33
2022-10-03T13:11:42.539Z,1.73
2022-10-03T13:12:50.966Z,2.03
2022-10-03T13:14:07.623Z,1.92
2022-10-03T13:15:58.985Z,1.30
2022-10-03T13:17:12.003Z,1.75
2022-10-03T13:18:27.647Z,1.73
2022-10-03T13:19:40.608Z,2.05
2022-10-03T13:20:53.396Z,1.70
2022-10-03T13:22:06.100Z,1.80
2022-10-03T13:23:20.328Z,1.67
2022-10-03T13:24:32.975Z,1.63
2022-10-03T13:25:45.247Z,1.60
2022-10-03T13:26:55.693Z,1.50
2022-10-03T13:28:05.420Z,1.33
2022-10-03T13:29:20.575Z,1.53
2022-10-03T13:30:27.014Z,1.48
2022-10-03T13:31:32.213Z,1.10
2022-10-03T13:32:42.414Z,1.63
2022-10-03T13:33:46.918Z,1.70
2022-10-03T13:35:23.169Z,1.80
2022-10-03T13:36:32.188Z,1.60
2022-10-03T13:37:58.024Z,1.53
2022-10-03T13:39:18.052Z,3.07
2022-10-03T13:40:20.095Z,1.53
2022-10-03T13:41:35.542Z,1.90
2022-10-03T13:42:42.226Z,1.58
2022-10-03T13:43:50.589Z,2.00
2022-10-03T13:44:56.624Z,1.70
2022-10-03T13:46:02.338Z,1.90
2022-10-03T13:47:20.695Z,1.50
2022-10-03T13:48:27.406Z,1.60
2022-10-03T13:49:34.423Z,1.50
2022-10-03T13:50:46.983Z,1.95
2022-10-03T13:51:58.619Z,1.40
2022-10-03T13:53:06.694Z,1.40
2022-10-03T13:54:15.861Z,1.92
2022-10-03T13:55:30.263Z,1.90
2022-10-03T13:56:45.350Z,1.57
2022-10-03T13:58:03.398Z,1.20
2022-10-03T13:59:16.897Z,1.47
2022-10-03T14:00:21.962Z,1.65
2022-10-03T14:01:38.346Z,1.93
2022-10-03T14:02:52.150Z,1.80
2022-10-03T14:04:15.920Z,1.40
2022-10-03T14:05:44.686Z,1.60
2022-10-03T14:06:55.295Z,1.70
2022-10-03T14:08:08.661Z,1.77
2022-10-03T14:09:38.030Z,1.73
2022-10-03T14:11:05.247Z,1.40
2022-10-03T14:12:33.043Z,2.70
2022-10-03T14:13:56.706Z,2.40
2022-10-03T14:15:18.931Z,1.60
2022-10-03T14:16:27.443Z,1.50
2022-10-03T14:17:41.176Z,1.30
2022-10-03T14:18:53.429Z,1.73
2022-10-03T14:20:10.272Z,2.25
2022-10-03T14:21:37.522Z,1.80
2022-10-03T14:22:52.240Z,1.30
2022-10-03T14:24:07.150Z,1.60
2022-10-03T14:25:34.522Z,1.30
2022-10-03T14:26:42.996Z,1.00
2022-10-03T14:27:52.917Z,1.10
2022-10-03T14:29:03.403Z,1.07
2022-10-03T14:30:10.026Z,1.17
2022-10-03T14:31:24.186Z,1.17
2022-10-03T14:32:46.791Z,1.40
2022-10-03T14:33:58.951Z,2.97
2022-10-03T14:35:11.172Z,1.40
2022-10-03T14:36:31.470Z,1.33
2022-10-03T14:37:40.712Z,1.93
2022-10-03T14:39:05.266Z,1.20
2022-10-03T14:40:16.844Z,1.23
2022-10-03T14:41:23.546Z,1.45
2022-10-03T14:42:41.164Z,1.55
2022-10-03T14:43:50.501Z,1.43
2022-10-03T14:44:56.414Z,1.70
2022-10-03T14:46:02.588Z,1.30
2022-10-03T14:47:11.202Z,1.40
2022-10-03T14:48:17.225Z,1.60
2022-10-03T14:49:52.406Z,1.45
2022-10-03T14:50:54.648Z,1.63
2022-10-03T14:52:02.094Z,1.60
2022-10-03T14:53:10.861Z,1.35
2022-10-03T14:54:20.516Z,1.50
2022-10-03T14:55:30.378Z,1.20
2022-10-03T14:56:35.687Z,1.33
2022-10-03T14:58:08.739Z,1.43
2022-10-03T14:59:14.268Z,1.83
2022-10-03T15:00:33.255Z,2.00
2022-10-03T15:01:35.980Z,1.60
2022-10-03T15:02:44.733Z,1.37
2022-10-03T15:03:59.010Z,1.43
2022-10-03T15:05:08.582Z,1.35
2022-10-03T15:06:35.595Z,1.90
2022-10-03T15:07:40.589Z,1.73
2022-10-03T15:08:45.543Z,1.77
2022-10-03T15:09:54.228Z,1.73
2022-10-03T15:10:56.840Z,1.63
2022-10-03T15:12:03.029Z,1.80
2022-10-03T15:13:09.480Z,1.67
2022-10-03T15:14:12.092Z,2.07
2022-10-03T15:15:19.009Z,1.57
2022-10-03T15:16:22.424Z,1.60
2022-10-03T15:17:28.974Z,1.60
2022-10-03T15:18:31.670Z,1.90
2022-10-03T15:19:40.296Z,1.40
2022-10-03T15:20:44.520Z,2.10
2022-10-03T15:21:49.666Z,1.60
2022-10-03T15:22:53.482Z,2.43
2022-10-03T15:23:59.947Z,1.80
2022-10-03T15:25:09.750Z,1.90
2022-10-03T15:26:17.329Z,1.63
2022-10-03T15:27:22.514Z,1.40
2022-10-03T15:28:31.597Z,1.20
2022-10-03T15:29:34.548Z,1.30
2022-10-03T15:30:39.560Z,1.77
2022-10-03T15:31:45.675Z,2.00
2022-10-03T15:32:49.718Z,2.00
2022-10-03T15:33:53.450Z,1.80
2022-10-03T15:35:00.553Z,2.20
2022-10-03T15:36:11.187Z,1.70
2022-10-03T15:37:19.088Z,1.60
2022-10-03T15:38:26.120Z,1.83
2022-10-03T15:39:31.287Z,2.33
2022-10-03T15:40:39.105Z,1.70
2022-10-03T15:41:52.161Z,1.50
2022-10-03T15:43:07.802Z,1.70
2022-10-03T15:44:19.488Z,1.52
2022-10-03T15:45:27.427Z,2.42
2022-10-03T15:46:35.400Z,1.43
2022-10-03T15:47:44.113Z,1.42
2022-10-03T15:48:52.281Z,1.97
2022-10-03T15:49:59.517Z,1.67
2022-10-03T15:51:04.260Z,1.77
2022-10-03T15:52:15.971Z,1.87
2022-10-03T15:53:36.029Z,1.67
2022-10-03T15:54:39.292Z,1.52
2022-10-03T15:55:50.169Z,1.55
2022-10-03T15:56:57.157Z,1.97
2022-10-03T15:58:02.168Z,1.80
2022-10-03T15:59:09.619Z,1.40
2022-10-03T16:00:22.342Z,1.87
2022-10-03T16:01:28.712Z,2.23
2022-10-03T16:05:01.283Z,1.50
2022-10-03T16:06:09.136Z,2.30
2022-10-03T16:08:30.349Z,2.03
2022-10-03T16:09:41.451Z,1.47
2022-10-03T16:10:54.320Z,1.57
2022-10-03T16:13:23.840Z,1.47
2022-10-03T16:14:30.209Z,1.90
2022-10-03T16:17:55.574Z,1.47
2022-10-03T16:19:21.409Z,1.37
2022-10-03T16:20:27.913Z,1.50
2022-10-03T16:21:41.433Z,1.40
2022-10-03T16:22:49.646Z,1.58
2022-10-03T16:23:56.816Z,1.50
2022-10-03T16:25:06.046Z,1.90
2022-10-03T16:26:18.694Z,2.27
2022-10-03T16:27:24.596Z,1.88
2022-10-03T16:28:35.001Z,4.18
2022-10-03T16:29:39.657Z,1.90
2022-10-03T16:30:46.702Z,1.83
2022-10-03T16:31:54.766Z,1.67
2022-10-03T16:33:04.767Z,1.57
2022-10-03T16:34:12.320Z,1.73
2022-10-03T16:35:28.552Z,1.30
2022-10-03T16:36:32.475Z,1.38
2022-10-03T16:37:39.738Z,1.60
2022-10-03T16:38:45.102Z,2.20
2022-10-03T16:39:55.340Z,2.00
2022-10-03T16:40:59.465Z,1.70
2022-10-03T16:47:11.824Z,1.55
2022-10-03T16:48:38.839Z,1.70
2022-10-03T16:50:04.091Z,1.70
2022-10-03T16:51:15.312Z,2.05
2022-10-03T16:52:21.165Z,2.47
2022-10-03T16:53:24.245Z,1.67
2022-10-03T16:54:31.577Z,1.60
2022-10-03T16:55:37.154Z,1.83
2022-10-03T16:56:45.063Z,1.92
2022-10-03T16:57:52.794Z,1.63
2022-10-03T16:59:06.592Z,1.55
2022-10-03T17:00:15.853Z,1.60
2022-10-03T17:01:28.283Z,1.60
2022-10-03T17:02:31.286Z,1.80
2022-10-03T17:03:41.916Z,1.90
2022-10-03T17:04:49.175Z,2.10
2022-10-03T17:05:58.659Z,1.97
2022-10-03T17:12:09.131Z,1.98
2022-10-03T17:13:16.582Z,2.17
2022-10-03T17:14:21.690Z,1.98
2022-10-03T17:15:27.879Z,19.80
2022-10-03T17:16:44.030Z,4.70
2022-10-03T17:17:53.608Z,2.95
2022-10-03T17:19:10.850Z,5.25
2022-10-03T17:20:19.052Z,4.60
2022-10-03T17:21:26.987Z,4.10
2022-10-03T17:22:36.988Z,3.47
2022-10-03T17:23:44.221Z,2.70
2022-10-03T17:24:52.788Z,2.38
2022-10-03T17:26:06.475Z,2.10
2022-10-03T17:27:16.581Z,2.20
2022-10-03T17:28:32.295Z,2.58
2022-10-03T17:29:42.104Z,2.83
2022-10-03T17:30:49.491Z,2.40
2022-10-03T17:32:01.178Z,2.72
2022-10-03T17:33:10.085Z,1.60
2022-10-03T17:34:16.848Z,2.40
2022-10-03T17:35:28.194Z,2.60
2022-10-03T17:36:59.751Z,2.72
2022-10-03T17:47:11.390Z,2.50
2022-10-03T17:48:19.286Z,2.20
2022-10-03T17:49:31.476Z,2.67
2022-10-03T17:50:39.287Z,2.50
2022-10-03T17:51:43.971Z,2.97
2022-10-03T17:52:48.619Z,2.95
2022-10-03T17:53:57.384Z,2.92
2022-10-03T17:55:03.455Z,3.30
2022-10-03T17:56:10.310Z,2.70
2022-10-03T17:57:19.471Z,3.03
2022-10-03T17:58:24.517Z,3.53
2022-10-03T17:59:30.532Z,3.05
2022-10-03T18:00:38.914Z,3.45
2022-10-03T18:01:44.668Z,2.50
2022-10-03T18:02:59.697Z,3.20
2022-10-03T18:04:04.575Z,3.20
2022-10-03T18:05:13.827Z,2.95
2022-10-03T18:06:38.509Z,2.85
2022-10-03T18:07:45.450Z,2.72
2022-10-03T18:08:51.370Z,3.70
2022-10-03T18:09:55.211Z,3.08
2022-10-03T18:11:02.399Z,3.33
2022-10-03T18:12:22.159Z,3.22
2022-10-03T18:13:29.295Z,3.35
2022-10-03T18:14:48.027Z,2.70
2022-10-03T18:16:18.226Z,2.90
2022-10-03T18:17:30.756Z,3.08
2022-10-03T18:18:53.629Z,3.33
2022-10-03T18:20:13.724Z,2.88
2022-10-03T18:21:24.922Z,3.38
2022-10-03T18:22:37.151Z,3.13
2022-10-03T18:24:00.140Z,3.00
2022-10-03T18:25:27.825Z,2.95